createdAt,value
2022-11-04T06:15:48.362Z,9.65
2022-11-04T06:25:48.270Z,10.57
2022-11-04T06:35:48.154Z,11.06
2022-11-04T06:45:48.214Z,10.55
2022-11-04T06:55:48.320Z,11.78
2022-11-04T07:05:48.269Z,7.75
2022-11-04T07:15:48.439Z,7.14
2022-11-04T07:25:48.710Z,8.72
2022-11-04T07:35:48.613Z,8.79
2022-11-04T07:45:48.913Z,7.64
2022-11-04T07:55:48.891Z,8.59
2022-11-04T08:05:49.159Z,8.85
2022-11-04T08:15:49.181Z,6.99
2022-11-04T08:25:49.383Z,5.70
2022-11-04T08:35:49.453Z,6.20
2022-11-04T08:45:49.439Z,7.49
2022-11-04T08:55:49.436Z,8.27
2022-11-04T09:05:49.399Z,8.63
2022-11-04T09:15:49.343Z,9.32
2022-11-04T09:25:49.457Z,9.21
2022-11-04T09:35:49.572Z,9.58
2022-11-04T09:45:49.417Z,7.09
2022-11-04T09:55:49.502Z,8.98
2022-11-04T10:05:49.394Z,8.74
2022-11-04T10:15:49.441Z,9.35
2022-11-04T10:25:49.440Z,10.94
2022-11-04T10:35:49.412Z,12.68
2022-11-04T10:45:49.385Z,11.39
2022-11-04T10:55:49.486Z,12.20
2022-11-04T11:05:49.393Z,12.37
2022-11-04T11:15:49.549Z,16.51
2022-11-04T11:25:49.691Z,13.49
2022-11-04T11:35:49.455Z,14.64
2022-11-04T11:45:49.657Z,11.38
2022-11-04T11:55:49.567Z,11.63
2022-11-04T12:06:18.395Z,9.73
2022-11-04T12:15:49.654Z,7.82
2022-11-04T12:25:49.512Z,8.45
2022-11-04T12:35:49.665Z,7.39
2022-11-04T12:45:49.702Z,7.17
2022-11-04T12:55:49.470Z,6.51
2022-11-04T13:05:49.601Z,10.45
2022-11-04T13:15:49.580Z,7.06
2022-11-04T13:25:49.642Z,6.16
2022-11-04T13:35:49.692Z,5.07
2022-11-04T13:45:49.888Z,5.09
2022-11-04T13:55:49.915Z,4.62
2022-11-04T14:05:49.827Z,4.45
2022-11-04T14:15:49.903Z,3.65
2022-11-04T14:25:49.807Z,1.55
2022-11-04T14:35:49.811Z,2.87
2022-11-04T14:45:49.820Z,1.86
2022-11-04T14:55:49.833Z,2.43
2022-11-04T15:05:50.884Z,2.02
2022-11-04T15:15:49.847Z,0.42
2022-11-04T15:25:49.867Z,1.71
2022-11-04T15:35:49.917Z,0.51
2022-11-04T15:45:49.931Z,0.00
2022-11-04T15:55:50.020Z,0.04
2022-11-04T16:05:50.121Z,0.09
2022-11-04T16:15:49.989Z,0.05
2022-11-04T16:25:49.915Z,1.48
2022-11-04T16:35:49.928Z,2.37
2022-11-04T16:45:53.782Z,1.76
2022-11-04T16:55:49.924Z,1.50
2022-11-04T17:05:49.885Z,1.04
2022-11-04T17:15:49.878Z,2.36
2022-11-04T17:25:50.060Z,2.10
2022-11-04T17:35:49.850Z,1.70
2022-11-04T17:45:49.881Z,2.85
2022-11-04T17:55:50.151Z,1.71
2022-11-04T18:05:49.998Z,0.73
2022-11-04T18:15:50.031Z,0.51
2022-11-04T18:25:50.899Z,0.20
2022-11-04T18:35:50.045Z,0.00
2022-11-04T18:45:50.081Z,0.49
2022-11-04T18:55:49.980Z,2.11
2022-11-04T19:05:49.949Z,4.26
2022-11-04T19:15:50.140Z,4.65
